createdAt,value
2022-09-27T00:00:33.076Z,95437.44
2022-09-27T00:06:09.174Z,95415.94
2022-09-27T00:11:33.896Z,95401.13
2022-09-27T00:16:54.788Z,95393.16
2022-09-27T00:22:15.504Z,95397.44
2022-09-27T00:27:36.391Z,95389.91
2022-09-27T00:32:57.111Z,95382.44
2022-09-27T00:38:18.249Z,95376.22
2022-09-27T00:43:52.635Z,95368.78
2022-09-27T00:49:45.902Z,95343.72
2022-09-27T00:55:16.563Z,95339.50
2022-09-27T01:00:42.598Z,95323.50
2022-09-27T01:06:06.662Z,95317.91
2022-09-27T01:11:49.520Z,95312.31
2022-09-27T01:17:39.555Z,95301.13
2022-09-27T01:23:10.418Z,95285.50
2022-09-27T01:28:52.664Z,95278.19
2022-09-27T01:34:25.830Z,95274.16
2022-09-27T01:40:08.650Z,95254.75
2022-09-27T01:46:08.750Z,95238.47
2022-09-27T01:52:00.990Z,95241.44
2022-09-27T01:57:28.050Z,95233.53
2022-09-27T02:02:57.255Z,95219.31
2022-09-27T02:08:52.861Z,95223.91
2022-09-27T02:14:50.958Z,95219.69
2022-09-27T02:20:31.702Z,95198.81
2022-09-27T02:26:37.692Z,95190.38
2022-09-27T02:31:58.699Z,95179.78
2022-09-27T02:37:19.923Z,95166.75
2022-09-27T02:42:44.517Z,95158.75
2022-09-27T02:48:13.119Z,95141.47
2022-09-27T02:53:52.341Z,95132.50
2022-09-27T02:59:54.699Z,95129.09
2022-09-27T03:05:30.654Z,95123.25
2022-09-27T03:10:51.967Z,95125.50
2022-09-27T03:16:13.302Z,95118.03
2022-09-27T03:22:06.179Z,95110.56
2022-09-27T03:27:27.276Z,95101.75
2022-09-27T03:32:47.980Z,95088.72
2022-09-27T03:38:29.021Z,95087.09
2022-09-27T03:43:49.780Z,95089.78
2022-09-27T03:49:13.325Z,95078.66
2022-09-27T03:54:34.755Z,95069.66
2022-09-27T03:59:56.159Z,95072.53
2022-09-27T04:05:35.401Z,95067.31
2022-09-27T04:11:07.679Z,95057.44
2022-09-27T04:16:28.923Z,95052.00
2022-09-27T04:22:15.548Z,95055.47
2022-09-27T04:27:37.640Z,95051.41
2022-09-27T04:32:58.795Z,95047.03
2022-09-27T04:38:42.234Z,95044.69
2022-09-27T04:44:05.232Z,95038.69
2022-09-27T04:49:25.975Z,95039.84
2022-09-27T04:54:47.842Z,95037.72
2022-09-27T05:00:09.941Z,95038.22
2022-09-27T05:05:31.989Z,95038.22
2022-09-27T05:10:52.749Z,95035.44
2022-09-27T05:16:13.981Z,95041.44
2022-09-27T05:21:54.798Z,95034.53
2022-09-27T05:27:20.607Z,95035.63
2022-09-27T05:32:44.105Z,95035.88
2022-09-27T05:38:19.814Z,95029.31
2022-09-27T05:43:43.457Z,95036.75
2022-09-27T05:49:06.815Z,95038.94
2022-09-27T05:54:29.987Z,95039.75
2022-09-27T05:59:52.263Z,95042.34
2022-09-27T06:05:16.244Z,95037.81
2022-09-27T06:10:38.092Z,95039.19
2022-09-27T06:16:00.842Z,95040.00
2022-09-27T06:21:23.145Z,95042.88
2022-09-27T06:26:49.472Z,95056.47
2022-09-27T06:32:29.346Z,95054.69
2022-09-27T06:38:11.299Z,95051.03
2022-09-27T06:43:38.511Z,95041.94
2022-09-27T06:49:00.236Z,95052.66
2022-09-27T06:54:20.965Z,95056.13
2022-09-27T07:00:00.275Z,95061.19
2022-09-27T07:05:44.192Z,95051.88
2022-09-27T07:11:23.697Z,95055.75
2022-09-27T07:16:46.238Z,95049.72
2022-09-27T07:22:07.698Z,95061.78
2022-09-27T07:27:29.412Z,95055.13
2022-09-27T07:32:50.723Z,95059.63
2022-09-27T07:38:16.582Z,95059.16
2022-09-27T07:43:37.853Z,95062.97
2022-09-27T07:49:00.455Z,95067.41
2022-09-27T07:54:48.301Z,95067.19
2022-09-27T08:00:19.858Z,95059.84
2022-09-27T08:05:45.808Z,95063.50
2022-09-27T08:11:15.409Z,95063.56
2022-09-27T08:16:37.566Z,95064.91
2022-09-27T08:22:26.715Z,95075.88
2022-09-27T08:28:04.739Z,95075.44
2022-09-27T08:33:39.112Z,95072.06
2022-09-27T08:39:02.377Z,95084.38
2022-09-27T08:45:02.379Z,95088.41
2022-09-27T08:50:30.520Z,95079.16
2022-09-27T08:55:58.030Z,95077.41
2022-09-27T09:01:27.893Z,95086.72
2022-09-27T09:07:09.899Z,95084.16
2022-09-27T09:12:56.146Z,95080.19
2022-09-27T09:18:50.337Z,95079.63
2022-09-27T09:24:32.082Z,95085.03
2022-09-27T09:29:59.770Z,95087.03
2022-09-27T09:35:27.972Z,95082.75
2022-09-27T09:41:11.612Z,95069.06
2022-09-27T09:46:45.779Z,95075.06
2022-09-27T09:52:15.219Z,95087.84
2022-09-27T09:57:42.713Z,95088.31
2022-09-27T10:03:09.953Z,95094.69
2022-09-27T10:08:31.417Z,95078.84
2022-09-27T10:14:18.693Z,95081.19
2022-09-27T10:19:39.884Z,95082.25
2022-09-27T10:25:08.369Z,95083.28
2022-09-27T10:30:57.255Z,95091.88
2022-09-27T10:36:32.597Z,95085.09
2022-09-27T10:41:53.863Z,95079.13
2022-09-27T10:47:32.318Z,95074.59
2022-09-27T10:53:19.266Z,95082.66
2022-09-27T10:58:48.780Z,95084.88
2022-09-27T11:04:33.886Z,95092.53
2022-09-27T11:10:03.126Z,95081.50
2022-09-27T11:15:31.113Z,95081.53
2022-09-27T11:21:13.929Z,95081.34
2022-09-27T11:27:02.863Z,95080.25
2022-09-27T11:32:42.269Z,95078.56
2022-09-27T11:38:40.880Z,95086.22
2022-09-27T11:44:13.499Z,95094.84
2022-09-27T11:49:59.963Z,95082.00
2022-09-27T11:55:33.352Z,95078.06
2022-09-27T12:01:17.063Z,95091.78
2022-09-27T12:07:04.238Z,95088.31
2022-09-27T12:12:35.626Z,95093.22
2022-09-27T12:18:17.072Z,95125.66
2022-09-27T12:23:43.970Z,95100.94
2022-09-27T12:29:36.339Z,95110.34
2022-09-27T12:35:05.506Z,95119.09
2022-09-27T12:40:34.537Z,95112.06
2022-09-27T12:46:34.968Z,95121.69
2022-09-27T12:52:01.294Z,95114.59
2022-09-27T12:57:29.991Z,95119.97
2022-09-27T13:03:29.563Z,95117.47
2022-09-27T13:09:11.489Z,95119.72
2022-09-27T13:14:42.746Z,95118.97
2022-09-27T13:20:31.429Z,95130.72
2022-09-27T13:26:03.832Z,95125.03
2022-09-27T13:32:10.351Z,95128.69
2022-09-27T13:37:59.634Z,95118.28
2022-09-27T13:43:59.605Z,95113.31
2022-09-27T13:49:43.475Z,95121.41
2022-09-27T13:55:47.061Z,95126.00
2022-09-27T14:01:42.603Z,95142.56
2022-09-27T14:07:05.227Z,95138.13
2022-09-27T14:12:35.941Z,95145.16
2022-09-27T14:18:00.245Z,95145.13
2022-09-27T14:23:27.173Z,95161.97
2022-09-27T14:28:50.427Z,95167.94
2022-09-27T14:34:24.381Z,95178.78
2022-09-27T14:39:59.477Z,95179.34
2022-09-27T14:45:39.209Z,95190.88
2022-09-27T14:51:14.059Z,95191.88
2022-09-27T14:56:38.474Z,95204.88
2022-09-27T15:02:05.633Z,95200.88
2022-09-27T15:07:27.217Z,95219.63
2022-09-27T15:12:57.920Z,95225.34
2022-09-27T15:18:40.977Z,95230.63
2022-09-27T15:24:03.162Z,95232.59
2022-09-27T15:29:25.930Z,95233.31
2022-09-27T15:34:46.686Z,95241.06
2022-09-27T15:40:45.631Z,95249.19
2022-09-27T15:46:27.364Z,95243.72
2022-09-27T15:51:54.260Z,95251.88
2022-09-27T15:57:15.200Z,95254.16
2022-09-27T16:02:37.113Z,95261.59
2022-09-27T16:07:59.442Z,95277.53
2022-09-27T16:13:20.610Z,95275.97
2022-09-27T16:18:41.233Z,95271.31
2022-09-27T16:24:06.190Z,95277.88
2022-09-27T16:29:30.729Z,95283.72
2022-09-27T16:34:51.726Z,95278.31
2022-09-27T16:40:15.327Z,95277.97
2022-09-27T16:45:36.839Z,95279.94
2022-09-27T16:51:22.232Z,95276.91
2022-09-27T16:56:43.394Z,95271.41
2022-09-27T17:02:05.645Z,95285.00
2022-09-27T17:07:28.428Z,95283.63
2022-09-27T17:12:49.624Z,95290.22
2022-09-27T17:18:12.737Z,95294.88
2022-09-27T17:23:34.462Z,95296.41
2022-09-27T17:28:57.388Z,95295.50
2022-09-27T17:34:18.340Z,95289.81
2022-09-27T17:39:41.772Z,95286.59
2022-09-27T17:45:03.470Z,95296.81
2022-09-27T17:50:30.160Z,95291.59
2022-09-27T17:55:51.103Z,95292.94
2022-09-27T18:01:12.196Z,95290.69
2022-09-27T18:06:44.446Z,95299.31
2022-09-27T18:12:05.963Z,95293.34
2022-09-27T18:17:28.004Z,95296.81
2022-09-27T18:22:48.872Z,95298.78
2022-09-27T18:28:09.632Z,95302.09
2022-09-27T18:33:31.703Z,95313.78
2022-09-27T18:38:58.260Z,95310.00
2022-09-27T18:44:20.138Z,95310.84
2022-09-27T18:49:41.293Z,95317.53
2022-09-27T18:55:02.431Z,95323.38
2022-09-27T19:00:23.191Z,95332.19
2022-09-27T19:05:43.985Z,95336.50
2022-09-27T19:11:08.859Z,95331.16
2022-09-27T19:16:30.295Z,95333.75
2022-09-27T19:21:51.099Z,95325.25
2022-09-27T19:27:14.575Z,95327.50
2022-09-27T19:32:35.703Z,95332.38
2022-09-27T19:37:56.361Z,95329.69
2022-09-27T19:43:17.126Z,95329.66
2022-09-27T19:48:38.590Z,95323.97
2022-09-27T19:53:59.378Z,95324.22
2022-09-27T19:59:20.498Z,95316.81
2022-09-27T20:04:41.668Z,95313.25
2022-09-27T20:10:03.110Z,95310.97
2022-09-27T20:15:23.927Z,95312.59
2022-09-27T20:20:44.907Z,95317.84
2022-09-27T20:26:10.644Z,95317.19
2022-09-27T20:31:34.371Z,95320.31
2022-09-27T20:36:55.366Z,95317.38
2022-09-27T20:42:16.152Z,95315.22
2022-09-27T20:47:38.563Z,95315.22
2022-09-27T20:52:59.576Z,95316.41
2022-09-27T20:58:20.237Z,95321.31
2022-09-27T21:03:44.908Z,95318.59
2022-09-27T21:09:07.050Z,95319.13
2022-09-27T21:14:27.978Z,95314.88
2022-09-27T21:19:48.899Z,95316.31
2022-09-27T21:25:09.696Z,95323.00
2022-09-27T21:30:31.156Z,95327.28
2022-09-27T21:35:51.790Z,95331.84
2022-09-27T21:41:14.844Z,95333.88
2022-09-27T21:46:41.013Z,95340.91
2022-09-27T21:52:02.083Z,95338.69
2022-09-27T21:57:23.183Z,95342.28
2022-09-27T22:02:44.165Z,95343.91
2022-09-27T22:08:05.827Z,95334.25
2022-09-27T22:13:28.466Z,95334.88
2022-09-27T22:18:52.227Z,95338.94
2022-09-27T22:24:15.784Z,95336.88
2022-09-27T22:29:36.569Z,95328.28
2022-09-27T22:34:57.359Z,95323.53
2022-09-27T22:40:18.468Z,95323.34
2022-09-27T22:45:39.125Z,95324.69
2022-09-27T22:51:00.436Z,95319.88
2022-09-27T22:56:21.563Z,95326.78
2022-09-27T23:01:42.361Z,95319.66
2022-09-27T23:07:03.049Z,95321.84
2022-09-27T23:12:23.792Z,95330.78
2022-09-27T23:17:50.269Z,95326.03
2022-09-27T23:23:13.813Z,95326.97
2022-09-27T23:28:35.331Z,95324.56
2022-09-27T23:33:57.825Z,95322.78
2022-09-27T23:39:18.892Z,95312.81
2022-09-27T23:44:40.059Z,95316.78
2022-09-27T23:50:02.484Z,95314.50
2022-09-27T23:55:23.205Z,95300.19
